Time;durP1;ratioP1;P1;durP2;ratioP2;P2;SDS_P1;SDS_P2;PMS_P1;PMS_P2;Temp;Humidity;BMP_temperature;BMP_pressure;BME280_temperature;BME280_humidity;BME280_pressure;Samples;Min_cycle;Max_cycle;Signal;HPM_P1;HPM_P2
2022/04/04 00:02:43;;;;;;;;;;;;;;;4.44;68.25;100333.78;5037541;28;20383;-63
2022/04/04 00:05:27;;;;;;;;;;;;;;;4.41;68.83;100330.25;5037449;28;19944;-63
2022/04/04 00:08:12;;;;;;;;;;;;;;;4.40;68.40;100335.34;5037434;28;19975;-63
2022/04/04 00:10:56;;;;;;;;;;;;;;;4.40;69.07;100332.78;5050241;28;19979;-62
2022/04/04 00:13:39;;;;;;;;;;;;;;;4.39;68.34;100334.44;5036658;28;19975;-63
2022/04/04 00:16:24;;;;;;;;;;;;;;;4.39;68.21;100323.31;5037072;28;19928;-63
2022/04/04 00:19:07;;;;;;;;;;;;;;;4.39;68.80;100326.75;5037040;28;19983;-63
2022/04/04 00:21:51;;;;;;;;;;;;;;;4.40;69.06;100319.94;5037248;28;20056;-63
2022/04/04 00:24:36;;;;;;;;;;;;;;;4.39;68.07;100315.63;5037008;28;19928;-62
2022/04/04 00:27:20;;;;;;;;;;;;;;;4.38;68.87;100312.16;5036201;28;19971;-63
2022/04/04 00:30:04;;;;;;;;;;;;;;;4.37;68.42;100312.09;5050368;28;19928;-63
2022/04/04 00:32:49;;;;;;;;;;;;;;;4.38;68.31;100314.72;5036595;28;19929;-63
2022/04/04 00:35:32;;;;;;;;;;;;;;;4.36;68.35;100313.75;5036828;28;19975;-62
2022/04/04 00:38:18;;;;;;;;;;;;;;;4.34;68.39;100310.28;5037157;28;19932;-63
2022/04/04 00:41:07;;;;;;;;;;;;;;;4.32;68.02;100306.75;5036342;28;19929;-63
2022/04/04 00:43:52;;;;;;;;;;;;;;;4.30;68.11;100302.34;5035662;28;20486;-63
2022/04/04 00:46:39;;;;;;;;;;;;;;;4.26;68.68;100294.53;5036033;28;20035;-63
2022/04/04 00:49:22;;;;;;;;;;;;;;;4.28;68.26;100298.88;5036613;28;19944;-63
2022/04/04 00:52:06;;;;;;;;;;;;;;;4.27;68.73;100295.41;5036504;28;19999;-63
2022/04/04 00:54:50;;;;;;;;;;;;;;;4.26;68.27;100291.06;5036238;28;20008;-63
2022/04/04 00:57:37;;;;;;;;;;;;;;;4.26;68.71;100288.50;5036466;28;19991;-63
2022/04/04 01:00:21;;;;;;;;;;;;;;;4.24;68.94;100280.75;5048387;28;19928;-62
2022/04/04 01:03:05;;;;;;;;;;;;;;;4.24;68.18;100283.31;5035022;28;20379;-63
2022/04/04 01:05:49;;;;;;;;;;;;;;;4.24;68.17;100282.44;5036628;28;20385;-63
2022/04/04 01:08:33;;;;;;;;;;;;;;;4.23;68.39;100281.56;5036504;28;19928;-63
2022/04/04 01:11:17;;;;;;;;;;;;;;;4.23;68.44;100270.41;5049144;28;19927;-63
2022/04/04 01:14:00;;;;;;;;;;;;;;;4.23;68.39;100273.88;5036025;28;20027;-63
2022/04/04 01:16:44;;;;;;;;;;;;;;;4.23;68.12;100272.97;5048581;28;19928;-63
2022/04/04 01:19:28;;;;;;;;;;;;;;;4.22;68.45;100266.06;5034886;28;19980;-63
2022/04/04 01:22:14;;;;;;;;;;;;;;;4.21;68.91;100272.91;5035752;28;19928;-63
2022/04/04 01:24:59;;;;;;;;;;;;;;;4.21;68.61;100267.78;5036140;28;19927;-63
2022/04/04 01:27:46;;;;;;;;;;;;;;;4.21;68.20;100269.44;5048884;28;19971;-63
2022/04/04 01:30:31;;;;;;;;;;;;;;;4.19;68.45;100265.97;5049222;28;19928;-63
2022/04/04 01:33:15;;;;;;;;;;;;;;;4.18;68.13;100261.63;5035025;28;19935;-63
2022/04/04 01:35:59;;;;;;;;;;;;;;;4.18;68.60;100259.94;5035762;28;19975;-62
2022/04/04 01:38:42;;;;;;;;;;;;;;;4.16;68.15;100255.56;5048628;28;19976;-63
2022/04/04 01:41:27;;;;;;;;;;;;;;;4.17;68.39;100254.75;5035453;28;19979;-63
2022/04/04 01:44:11;;;;;;;;;;;;;;;4.17;68.24;100245.34;5034666;28;19987;-63
2022/04/04 01:46:55;;;;;;;;;;;;;;;4.18;68.39;100241.13;5035536;28;19983;-63
2022/04/04 01:49:39;;;;;;;;;;;;;;;4.17;68.40;100244.50;5035525;28;19929;-63
2022/04/04 01:52:23;;;;;;;;;;;;;;;4.17;68.18;100239.34;5048796;28;19928;-62
2022/04/04 01:55:07;;;;;;;;;;;;;;;4.17;68.65;100236.78;5048254;28;20399;-63
2022/04/04 01:57:51;;;;;;;;;;;;;;;4.15;68.33;100228.16;5034745;28;19929;-62
2022/04/04 02:00:35;;;;;;;;;;;;;;;4.14;68.36;100222.13;5034934;28;19927;-62
2022/04/04 02:03:19;;;;;;;;;;;;;;;4.15;68.72;100216.19;5034694;28;19975;-63
2022/04/04 02:06:03;;;;;;;;;;;;;;;4.15;68.79;100225.59;5035480;28;19965;-63
2022/04/04 02:08:47;;;;;;;;;;;;;;;4.14;68.33;100217.00;5035294;28;19928;-63
2022/04/04 02:11:34;;;;;;;;;;;;;;;4.14;68.13;100204.16;5034513;28;19928;-63
2022/04/04 02:14:18;;;;;;;;;;;;;;;4.14;68.42;100203.28;5033556;28;19928;-64
2022/04/04 02:17:02;;;;;;;;;;;;;;;4.13;68.41;100209.25;5034538;28;19944;-63
2022/04/04 02:19:47;;;;;;;;;;;;;;;4.13;68.39;100197.28;5034908;28;19932;-63
2022/04/04 02:22:31;;;;;;;;;;;;;;;4.10;68.47;100194.59;5034721;28;19944;-63
2022/04/04 02:25:15;;;;;;;;;;;;;;;4.08;68.62;100191.94;5034803;28;19928;-63
2022/04/04 02:27:59;;;;;;;;;;;;;;;4.09;68.67;100188.56;5047807;28;20403;-62
2022/04/04 02:30:43;;;;;;;;;;;;;;;4.09;68.18;100182.56;5034656;28;19994;-64
2022/04/04 02:33:27;;;;;;;;;;;;;;;4.08;68.37;100183.38;5035185;28;19932;-63
2022/04/04 02:36:11;;;;;;;;;;;;;;;4.05;68.53;100181.53;5034266;28;20303;-63
2022/04/04 02:38:55;;;;;;;;;;;;;;;4.05;68.63;100171.28;5034315;28;19929;-63
2022/04/04 02:41:39;;;;;;;;;;;;;;;4.05;68.31;100171.28;5034328;28;19974;-63
2022/04/04 02:44:23;;;;;;;;;;;;;;;4.04;68.77;100169.56;5034205;28;19928;-63
2022/04/04 02:47:07;;;;;;;;;;;;;;;4.03;68.16;100165.22;5034487;28;19947;-63
2022/04/04 02:49:51;;;;;;;;;;;;;;;4.02;68.44;100160.91;5034747;28;19928;-64
2022/04/04 02:52:35;;;;;;;;;;;;;;;4.01;68.19;100164.28;5034573;28;20007;-63
2022/04/04 02:58:22;;;;;;;;;;;;;;;3.99;68.26;100150.50;5034266;28;19944;-62
2022/04/04 03:01:06;;;;;;;;;;;;;;;3.99;68.63;100141.91;5034414;28;19932;-63
2022/04/04 03:03:50;;;;;;;;;;;;;;;3.99;68.34;100142.81;5034017;28;19979;-63
2022/04/04 03:06:36;;;;;;;;;;;;;;;3.99;68.38;100142.81;5047096;28;19944;-66
2022/04/04 03:09:20;;;;;;;;;;;;;;;3.99;68.40;100139.34;5033645;28;20395;-63
2022/04/04 03:12:05;;;;;;;;;;;;;;;3.95;68.50;100131.56;5047246;28;19928;-64
2022/04/04 03:14:49;;;;;;;;;;;;;;;3.96;68.87;100132.41;5033645;28;19929;-63
2022/04/04 03:17:33;;;;;;;;;;;;;;;3.93;68.68;100122.00;5033511;28;19928;-62
2022/04/04 03:20:18;;;;;;;;;;;;;;;3.92;68.27;100116.03;5033084;28;19932;-63
2022/04/04 03:23:02;;;;;;;;;;;;;;;3.93;68.35;100111.75;5033176;28;19928;-62
2022/04/04 03:25:46;;;;;;;;;;;;;;;3.91;68.35;100114.28;5033083;28;19975;-62
2022/04/04 03:28:30;;;;;;;;;;;;;;;3.92;68.45;100105.75;5033696;28;19928;-63
2022/04/04 03:31:14;;;;;;;;;;;;;;;3.89;68.49;100103.06;5033891;28;19928;-63
2022/04/04 03:33:59;;;;;;;;;;;;;;;3.88;68.08;100101.31;5032673;28;19971;-62
2022/04/04 03:36:43;;;;;;;;;;;;;;;3.89;68.40;100091.94;5033268;28;20048;-63
2022/04/04 03:39:27;;;;;;;;;;;;;;;3.85;68.88;100088.34;5033621;28;20067;-63
2022/04/04 03:42:11;;;;;;;;;;;;;;;3.85;68.13;100072.09;5047141;28;19928;-63
2022/04/04 03:44:54;;;;;;;;;;;;;;;3.81;69.06;100073.66;5033731;28;19928;-63
2022/04/04 03:47:39;;;;;;;;;;;;;;;3.81;68.78;100073.66;5033682;28;19929;-62
2022/04/04 03:50:24;;;;;;;;;;;;;;;3.82;68.84;100072.81;5032626;28;20463;-63
2022/04/04 03:53:08;;;;;;;;;;;;;;;3.81;68.97;100060.84;5033909;28;19943;-63
2022/04/04 03:55:53;;;;;;;;;;;;;;;3.79;68.92;100057.31;5033687;28;19975;-63
2022/04/04 03:58:37;;;;;;;;;;;;;;;3.77;68.98;100056.38;5033185;28;20446;-63
2022/04/04 04:01:22;;;;;;;;;;;;;;;3.73;68.79;100055.38;5033692;28;20026;-64
2022/04/04 04:04:06;;;;;;;;;;;;;;;3.74;68.91;100045.97;5032433;28;19927;-63
2022/04/04 04:06:51;;;;;;;;;;;;;;;3.75;68.08;100035.78;5033071;28;19983;-63
2022/04/04 04:09:35;;;;;;;;;;;;;;;3.72;69.00;100037.34;5032619;28;19978;-63
2022/04/04 04:12:22;;;;;;;;;;;;;;;3.74;68.44;100028.03;5046085;28;20308;-63
2022/04/04 04:15:07;;;;;;;;;;;;;;;3.70;68.92;100028.72;5033370;28;19967;-62
2022/04/04 04:17:52;;;;;;;;;;;;;;;3.68;68.38;100025.19;5032395;28;19971;-64
2022/04/04 04:20:36;;;;;;;;;;;;;;;3.69;68.93;100024.38;5033114;28;19948;-63
2022/04/04 04:23:20;;;;;;;;;;;;;;;3.68;68.59;100017.50;5046912;28;19927;-63
2022/04/04 04:26:06;;;;;;;;;;;;;;;3.66;68.90;100020.88;5032915;28;19928;-63
2022/04/04 04:28:50;;;;;;;;;;;;;;;3.64;68.47;100014.84;5032815;28;19928;-63
2022/04/04 04:31:34;;;;;;;;;;;;;;;3.65;68.59;100014.03;5033137;28;19928;-63
2022/04/04 04:34:18;;;;;;;;;;;;;;;3.64;68.74;100009.72;5033307;28;20351;-63
2022/04/04 04:37:02;;;;;;;;;;;;;;;3.63;68.56;100007.06;5036047;28;19928;-63
2022/04/04 04:39:49;;;;;;;;;;;;;;;3.65;68.43;100000.31;5036338;28;19932;-63
2022/04/04 04:42:33;;;;;;;;;;;;;;;3.64;68.64;100001.13;5036109;28;19927;-63
2022/04/04 04:45:17;;;;;;;;;;;;;;;3.62;68.81;99998.50;5036513;28;19932;-62
2022/04/04 04:48:01;;;;;;;;;;;;;;;3.63;68.11;99987.44;5036768;28;20426;-63
2022/04/04 04:50:46;;;;;;;;;;;;;;;3.63;68.10;99982.31;5036000;28;19944;-63
2022/04/04 04:53:32;;;;;;;;;;;;;;;3.60;68.09;99984.75;5036532;28;19975;-62
2022/04/04 04:56:16;;;;;;;;;;;;;;;3.63;68.81;99979.75;5049440;28;20407;-62
2022/04/04 04:59:00;;;;;;;;;;;;;;;3.64;68.86;99981.50;5036762;28;20276;-63
2022/04/04 05:01:44;;;;;;;;;;;;;;;3.64;68.49;99975.50;5036342;28;20016;-62
2022/04/04 05:04:29;;;;;;;;;;;;;;;3.65;68.89;99978.16;5035544;28;20403;-62
2022/04/04 05:07:17;;;;;;;;;;;;;;;3.65;68.52;99977.25;5036354;28;19944;-64
2022/04/04 05:10:02;;;;;;;;;;;;;;;3.64;68.57;99980.63;5049695;28;19928;-63
2022/04/04 05:12:46;;;;;;;;;;;;;;;3.65;68.88;99978.16;5035294;28;19983;-63
2022/04/04 05:15:30;;;;;;;;;;;;;;;3.64;68.39;99973.81;5049408;28;19928;-63
2022/04/04 05:18:14;;;;;;;;;;;;;;;3.63;68.79;99966.06;5034942;28;19991;-63
2022/04/04 05:20:58;;;;;;;;;;;;;;;3.63;68.78;99973.75;5035988;28;20020;-63
2022/04/04 05:23:42;;;;;;;;;;;;;;;3.64;68.82;99965.25;5035773;28;20068;-64
2022/04/04 05:26:25;;;;;;;;;;;;;;;3.61;68.58;99957.41;5036250;28;19932;-63
2022/04/04 05:29:09;;;;;;;;;;;;;;;3.61;68.54;99959.97;5036001;28;20012;-62
2022/04/04 05:31:54;;;;;;;;;;;;;;;3.61;68.79;99953.19;5035930;28;19996;-62
2022/04/04 05:34:38;;;;;;;;;;;;;;;3.60;68.36;99954.00;5035200;28;19975;-63
2022/04/04 05:37:22;;;;;;;;;;;;;;;3.62;68.01;99948.91;5035126;28;19927;-63
2022/04/04 05:40:14;;;;;;;;;;;;;;;3.62;68.19;99957.50;5036006;28;19952;-63
2022/04/04 05:43:00;;;;;;;;;;;;;;;3.63;68.38;99950.66;5035416;28;20002;-63
2022/04/04 05:45:44;;;;;;;;;;;;;;;3.61;68.11;99945.50;5034238;28;20318;-62
2022/04/04 05:48:30;;;;;;;;;;;;;;;3.60;68.82;99940.28;5035178;28;20297;-63
2022/04/04 05:51:16;;;;;;;;;;;;;;;3.58;68.28;99936.81;5035513;28;19983;-63
2022/04/04 05:54:01;;;;;;;;;;;;;;;3.59;68.67;99925.72;5034739;28;20407;-62
2022/04/04 05:56:45;;;;;;;;;;;;;;;3.58;68.48;99926.56;5034707;28;19932;-62
2022/04/04 05:59:29;;;;;;;;;;;;;;;3.57;68.24;99920.53;5035119;28;19971;-63
2022/04/04 06:02:13;;;;;;;;;;;;;;;3.57;68.62;99915.41;5035057;28;19928;-63
2022/04/04 06:04:57;;;;;;;;;;;;;;;3.57;68.37;99914.56;5034901;28;20407;-63
2022/04/04 06:07:41;;;;;;;;;;;;;;;3.58;68.67;99906.91;5048518;28;20055;-62
2022/04/04 06:10:25;;;;;;;;;;;;;;;3.58;68.88;99909.47;5034743;28;19928;-63
2022/04/04 06:13:12;;;;;;;;;;;;;;;3.60;68.23;99907.84;5034886;28;19944;-63
2022/04/04 06:15:56;;;;;;;;;;;;;;;3.58;68.27;99893.25;5048043;28;19995;-62
2022/04/04 06:18:40;;;;;;;;;;;;;;;3.59;68.58;99889.84;5034823;28;19991;-62
2022/04/04 06:21:24;;;;;;;;;;;;;;;3.60;68.24;99892.47;5047749;28;19928;-62
2022/04/04 06:24:11;;;;;;;;;;;;;;;3.60;68.66;99877.09;5035241;28;19928;-62
2022/04/04 06:26:55;;;;;;;;;;;;;;;3.59;68.51;99877.03;5034040;28;19928;-62
2022/04/04 06:29:39;;;;;;;;;;;;;;;3.61;68.41;99880.53;5034233;28;19972;-62
2022/04/04 06:32:26;;;;;;;;;;;;;;;3.61;68.44;99883.09;5048060;28;19963;-63
2022/04/04 06:35:14;;;;;;;;;;;;;;;3.58;68.05;99868.47;5033951;28;20435;-63
2022/04/04 06:38:02;;;;;;;;;;;;;;;3.57;68.36;99871.84;5034027;28;19943;-63
2022/04/04 06:40:46;;;;;;;;;;;;;;;3.58;68.29;99857.34;5033508;28;19987;-63
2022/04/04 06:43:30;;;;;;;;;;;;;;;3.57;68.35;99842.78;5033471;28;19928;-63
2022/04/04 06:46:16;;;;;;;;;;;;;;;3.57;67.85;99835.97;5047306;28;19928;-63
2022/04/04 06:49:00;;;;;;;;;;;;;;;3.59;68.18;99838.56;5033736;28;19976;-63
2022/04/04 06:51:44;;;;;;;;;;;;;;;3.60;67.90;99832.63;5034335;28;20029;-63
2022/04/04 06:54:28;;;;;;;;;;;;;;;3.58;67.88;99836.84;5047232;28;20299;-64
2022/04/04 06:57:12;;;;;;;;;;;;;;;3.60;67.62;99824.94;5033961;28;19927;-62
2022/04/04 06:59:55;;;;;;;;;;;;;;;3.59;67.78;99831.78;5033880;28;19928;-63
2022/04/04 07:02:39;;;;;;;;;;;;;;;3.60;67.83;99824.94;5033949;28;20030;-62
2022/04/04 07:05:24;;;;;;;;;;;;;;;3.59;67.16;99818.06;5046905;28;19933;-63
2022/04/04 07:08:08;;;;;;;;;;;;;;;3.59;67.81;99820.63;5034219;28;19929;-63
2022/04/04 07:10:52;;;;;;;;;;;;;;;3.59;67.10;99818.06;5034886;28;19975;-62
2022/04/04 07:13:39;;;;;;;;;;;;;;;3.61;67.66;99817.34;5033658;28;20525;-63
2022/04/04 07:16:25;;;;;;;;;;;;;;;3.63;67.16;99820.84;5032668;28;20040;-63
2022/04/04 07:19:14;;;;;;;;;;;;;;;3.64;67.72;99790.94;5047153;28;19928;-63
2022/04/04 07:21:58;;;;;;;;;;;;;;;3.64;67.09;99807.22;5033784;28;19931;-62
2022/04/04 07:24:42;;;;;;;;;;;;;;;3.65;67.79;99806.41;5033900;28;20347;-63
2022/04/04 07:27:26;;;;;;;;;;;;;;;3.68;66.87;99807.31;5033598;28;19931;-63
2022/04/04 07:30:11;;;;;;;;;;;;;;;3.70;67.44;99790.31;5033865;28;19975;-64
2022/04/04 07:32:55;;;;;;;;;;;;;;;3.70;67.23;99798.91;5034229;28;19967;-63
2022/04/04 07:35:39;;;;;;;;;;;;;;;3.72;66.96;99786.13;5034080;28;19960;-62
2022/04/04 07:38:24;;;;;;;;;;;;;;;3.74;67.89;99790.50;5033783;28;19928;-64
2022/04/04 07:41:08;;;;;;;;;;;;;;;3.78;66.93;99788.94;5033138;28;20447;-63
2022/04/04 07:43:53;;;;;;;;;;;;;;;3.79;67.87;99771.03;5033819;28;19968;-63
2022/04/04 07:46:36;;;;;;;;;;;;;;;3.83;67.61;99777.16;5019154;28;20347;-64
2022/04/04 07:49:21;;;;;;;;;;;;;;;3.85;67.40;99754.16;5034081;28;19983;-63
2022/04/04 07:52:07;;;;;;;;;;;;;;;3.86;67.64;99759.34;5033774;28;19928;-63
2022/04/04 07:54:53;;;;;;;;;;;;;;;3.87;67.14;99758.53;5033459;28;19928;-62
2022/04/04 07:57:38;;;;;;;;;;;;;;;3.89;67.70;99746.66;5046686;28;20347;-64
2022/04/04 08:00:24;;;;;;;;;;;;;;;3.90;67.27;99738.13;5033122;28;19943;-63
2022/04/04 08:03:08;;;;;;;;;;;;;;;3.93;67.03;99743.38;5033462;28;19975;-64
2022/04/04 08:05:54;;;;;;;;;;;;;;;3.95;67.15;99735.75;5033196;28;19932;-63
2022/04/04 08:08:37;;;;;;;;;;;;;;;3.98;67.18;99730.72;5032942;28;20391;-63
2022/04/04 08:11:21;;;;;;;;;;;;;;;4.00;67.68;99744.50;5035569;28;19928;-63
2022/04/04 08:14:08;;;;;;;;;;;;;;;4.02;67.15;99736.84;5036657;28;19928;-63
2022/04/04 08:16:53;;;;;;;;;;;;;;;4.00;66.92;99733.34;5050378;28;20398;-62
2022/04/04 08:19:36;;;;;;;;;;;;;;;4.03;67.20;99729.22;5037240;28;19931;-63
2022/04/04 08:22:22;;;;;;;;;;;;;;;4.04;67.19;99723.28;5036554;28;20024;-63
2022/04/04 08:25:06;;;;;;;;;;;;;;;4.06;67.00;99718.19;5050045;28;20331;-62
2022/04/04 08:27:50;;;;;;;;;;;;;;;4.08;66.88;99711.44;5035602;28;19928;-63
2022/04/04 08:30:34;;;;;;;;;;;;;;;4.09;67.21;99710.63;5037046;28;19928;-62
2022/04/04 08:33:18;;;;;;;;;;;;;;;4.11;67.16;99711.56;5036711;28;19928;-63
2022/04/04 08:36:03;;;;;;;;;;;;;;;4.11;66.74;99702.16;5036892;28;20284;-63
2022/04/04 08:38:47;;;;;;;;;;;;;;;4.13;66.71;99694.50;5049973;28;20394;-63
2022/04/04 08:41:32;;;;;;;;;;;;;;;4.13;66.62;99694.50;5036800;28;19991;-63
2022/04/04 08:44:16;;;;;;;;;;;;;;;4.14;67.25;99687.69;5036181;28;20378;-63
2022/04/04 08:47:01;;;;;;;;;;;;;;;4.13;66.97;99684.25;5035495;28;19929;-63
2022/04/04 08:49:46;;;;;;;;;;;;;;;4.16;67.26;99683.50;5036947;28;19983;-63
2022/04/04 08:52:30;;;;;;;;;;;;;;;4.16;66.92;99678.38;5035311;28;19928;-63
2022/04/04 08:55:15;;;;;;;;;;;;;;;4.16;67.20;99668.97;5036827;28;20296;-62
2022/04/04 08:57:59;;;;;;;;;;;;;;;4.18;66.99;99672.47;5035969;28;19927;-62
2022/04/04 09:00:43;;;;;;;;;;;;;;;4.20;66.83;99665.69;5049753;28;20419;-63
2022/04/04 09:03:31;;;;;;;;;;;;;;;4.21;66.81;99657.19;5035886;28;20423;-63
2022/04/04 09:06:16;;;;;;;;;;;;;;;4.23;66.69;99657.22;5035691;28;19971;-63
2022/04/04 09:09:00;;;;;;;;;;;;;;;4.24;66.90;99647.03;5035413;28;20395;-62
2022/04/04 09:11:50;;;;;;;;;;;;;;;4.26;67.08;99644.53;5036644;28;19927;-63
2022/04/04 09:14:36;;;;;;;;;;;;;;;4.27;67.42;99630.88;5035064;28;20426;-64
2022/04/04 09:17:28;;;;;;;;;;;;;;;4.29;67.06;99634.38;5036007;28;19928;-63
2022/04/04 09:20:16;;;;;;;;;;;;;;;4.31;66.68;99622.47;5035189;28;19928;-63
2022/04/04 09:22:59;;;;;;;;;;;;;;;4.32;67.39;99628.47;5034441;28;19928;-63
2022/04/04 09:25:44;;;;;;;;;;;;;;;4.33;66.79;99619.94;5035938;28;19927;-62
2022/04/04 09:28:28;;;;;;;;;;;;;;;4.35;67.57;99621.75;5034906;28;19934;-63
2022/04/04 09:31:12;;;;;;;;;;;;;;;4.37;67.38;99617.53;5034765;28;19928;-63
2022/04/04 09:33:59;;;;;;;;;;;;;;;4.38;67.40;99605.59;5036206;28;20434;-63
2022/04/04 09:36:47;;;;;;;;;;;;;;;4.41;66.62;99621.09;5035869;28;20371;-63
2022/04/04 09:39:33;;;;;;;;;;;;;;;4.41;66.90;99619.38;5035285;28;19975;-63
2022/04/04 09:42:19;;;;;;;;;;;;;;;4.42;66.51;99605.75;5035084;28;19976;-63
2022/04/04 09:45:03;;;;;;;;;;;;;;;4.45;67.02;99611.81;5035457;28;19960;-63
2022/04/04 09:47:50;;;;;;;;;;;;;;;4.45;66.92;99599.81;5035579;28;19979;-63
2022/04/04 09:50:35;;;;;;;;;;;;;;;4.49;67.27;99593.13;5035586;28;20447;-63
2022/04/04 09:53:21;;;;;;;;;;;;;;;4.49;67.25;99586.28;5035149;28;19959;-63
2022/04/04 09:56:09;;;;;;;;;;;;;;;4.50;66.81;99580.34;5035314;28;19951;-63
2022/04/04 09:58:53;;;;;;;;;;;;;;;4.53;67.22;99571.84;5048667;28;20335;-64
2022/04/04 10:01:37;;;;;;;;;;;;;;;4.54;67.50;99589.00;5035251;28;19987;-63
2022/04/04 10:04:22;;;;;;;;;;;;;;;4.53;67.51;99565.03;5035273;28;20390;-62
2022/04/04 10:07:08;;;;;;;;;;;;;;;4.54;66.74;99573.59;5034591;28;19975;-63
2022/04/04 10:09:52;;;;;;;;;;;;;;;4.52;66.62;99573.56;5034405;28;19927;-64
2022/04/04 10:12:36;;;;;;;;;;;;;;;4.53;67.13;99549.63;5035393;28;20002;-64
2022/04/04 10:15:21;;;;;;;;;;;;;;;4.53;67.02;99567.59;5033921;28;19928;-63
2022/04/04 10:18:06;;;;;;;;;;;;;;;4.53;66.86;99546.19;5033828;28;19928;-64
2022/04/04 10:20:53;;;;;;;;;;;;;;;4.53;67.00;99544.50;5034344;28;19928;-62
2022/04/04 10:23:41;;;;;;;;;;;;;;;4.54;66.99;99555.63;5033737;28;19928;-63
2022/04/04 10:26:30;;;;;;;;;;;;;;;4.55;67.41;99562.50;5034583;28;19971;-63
2022/04/04 10:29:18;;;;;;;;;;;;;;;4.57;66.67;99566.00;5033898;28;20292;-63
2022/04/04 10:32:02;;;;;;;;;;;;;;;4.57;67.39;99563.44;5033931;28;20022;-64
2022/04/04 10:34:46;;;;;;;;;;;;;;;4.56;67.13;99577.97;5047087;28;19928;-62
2022/04/04 10:37:39;;;;;;;;;;;;;;;4.54;67.38;99569.34;5034206;28;19928;-62
2022/04/04 10:40:28;;;;;;;;;;;;;;;4.55;67.10;99552.25;5033972;28;19972;-63
2022/04/04 10:43:13;;;;;;;;;;;;;;;4.55;66.73;99552.25;5033777;28;19944;-63
2022/04/04 10:45:58;;;;;;;;;;;;;;;4.54;67.42;99569.34;5033868;28;20434;-62
2022/04/04 10:48:46;;;;;;;;;;;;;;;4.56;67.23;99554.00;5033327;28;19993;-65
2022/04/04 10:51:34;;;;;;;;;;;;;;;4.55;67.16;99540.31;5033795;28;20285;-63
2022/04/04 10:54:22;;;;;;;;;;;;;;;4.55;66.84;99545.44;5033514;28;19979;-62
2022/04/04 10:57:15;;;;;;;;;;;;;;;4.56;66.63;99536.91;5033483;28;19928;-63
2022/04/04 10:59:58;;;;;;;;;;;;;;;4.56;67.25;99539.47;5033126;28;19928;-63
2022/04/04 11:02:44;;;;;;;;;;;;;;;4.57;66.72;99538.66;5033854;28;19927;-63
2022/04/04 11:08:37;;;;;;;;;;;;;;;4.59;66.76;99546.41;5033680;28;20411;-62
2022/04/04 11:11:39;;;;;;;;;;;;;;;4.56;67.44;99539.47;5033161;28;19975;-63
2022/04/04 11:14:37;;;;;;;;;;;;;;;4.57;67.74;99528.41;5034257;28;19992;-63
2022/04/04 11:17:30;;;;;;;;;;;;;;;4.54;67.23;99523.16;5046782;28;19929;-63
2022/04/04 11:20:33;;;;;;;;;;;;;;;4.55;67.68;99529.16;5033272;28;20020;-63
2022/04/04 11:23:17;;;;;;;;;;;;;;;4.52;67.53;99519.66;5047021;28;19996;-63
2022/04/04 11:26:04;;;;;;;;;;;;;;;4.51;67.98;99507.66;5033747;28;20051;-63
2022/04/04 11:28:50;;;;;;;;;;;;;;;4.51;67.65;99523.06;5033298;28;19928;-62
2022/04/04 11:31:46;;;;;;;;;;;;;;;4.52;68.13;99517.09;5033689;28;19928;-62
2022/04/04 11:34:35;;;;;;;;;;;;;;;4.52;67.88;99508.50;5032942;28;19968;-63
2022/04/04 11:37:19;;;;;;;;;;;;;;;4.52;68.41;99495.69;5032448;28;19928;-63
2022/04/04 11:40:06;;;;;;;;;;;;;;;4.50;67.84;99495.66;5033627;28;19983;-63
2022/04/04 11:42:51;;;;;;;;;;;;;;;4.49;68.44;99517.00;5033333;28;19979;-63
2022/04/04 11:45:39;;;;;;;;;;;;;;;4.49;68.12;99503.31;5035391;28;19927;-62
2022/04/04 11:48:28;;;;;;;;;;;;;;;4.48;68.63;99493.84;5037003;28;19928;-64
2022/04/04 11:51:12;;;;;;;;;;;;;;;4.47;68.84;99510.94;5036743;28;19978;-62
2022/04/04 11:54:15;;;;;;;;;;;;;;;4.46;68.97;99498.06;5022873;28;20399;-62
2022/04/04 11:56:59;;;;;;;;;;;;;;;4.47;69.11;99510.94;5050683;28;19928;-63
2022/04/04 11:59:44;;;;;;;;;;;;;;;4.45;68.66;99502.31;5037638;28;19928;-65
2022/04/04 12:02:30;;;;;;;;;;;;;;;4.44;69.72;99482.59;5036564;28;19978;-63
2022/04/04 12:05:14;;;;;;;;;;;;;;;4.45;68.97;99492.03;5036629;28;19967;-63
2022/04/04 12:07:58;;;;;;;;;;;;;;;4.43;69.31;99483.47;5036105;28;20418;-62
2022/04/04 12:10:43;;;;;;;;;;;;;;;4.44;69.33;99484.31;5037529;28;20387;-63
2022/04/04 12:13:27;;;;;;;;;;;;;;;4.44;69.49;99479.19;5037174;28;20363;-63
2022/04/04 12:16:11;;;;;;;;;;;;;;;4.42;69.56;99474.00;5036882;28;19967;-62
2022/04/04 12:18:58;;;;;;;;;;;;;;;4.42;69.59;99479.16;5037763;28;19983;-62
2022/04/04 12:21:42;;;;;;;;;;;;;;;4.41;70.14;99479.97;5036494;28;19929;-63
2022/04/04 12:27:29;;;;;;;;;;;;;;;4.42;69.50;99468.88;5036845;28;19932;-63
2022/04/04 12:30:13;;;;;;;;;;;;;;;4.42;69.91;99479.16;5035838;28;19970;-63
2022/04/04 12:33:07;;;;;;;;;;;;;;;4.41;70.13;99464.56;5037323;28;19932;-62
2022/04/04 12:35:51;;;;;;;;;;;;;;;4.40;69.59;99450.84;5036278;28;20007;-62
2022/04/04 12:38:39;;;;;;;;;;;;;;;4.40;69.53;99443.16;5049993;28;20450;-62
2022/04/04 12:41:23;;;;;;;;;;;;;;;4.42;69.78;99448.34;5035888;28;19928;-63
2022/04/04 12:44:07;;;;;;;;;;;;;;;4.41;69.84;99439.75;5036576;28;20122;-63
2022/04/04 12:47:03;;;;;;;;;;;;;;;4.39;69.67;99423.44;5036827;28;20351;-63
2022/04/04 12:49:47;;;;;;;;;;;;;;;4.40;70.13;99427.75;5036576;28;19970;-63
2022/04/04 12:52:33;;;;;;;;;;;;;;;4.40;70.25;99443.16;5036181;28;20403;-63
2022/04/04 12:55:17;;;;;;;;;;;;;;;4.42;70.16;99453.47;5036989;28;19932;-62
2022/04/04 12:58:22;;;;;;;;;;;;;;;4.40;70.34;99424.34;5035695;28;19944;-63
2022/04/04 13:01:16;;;;;;;;;;;;;;;4.40;70.05;99438.03;5035867;28;19971;-63
2022/04/04 13:04:02;;;;;;;;;;;;;;;4.40;70.38;99427.75;5035253;28;19970;-62
2022/04/04 13:06:47;;;;;;;;;;;;;;;4.40;70.33;99416.63;5036708;28;19928;-63
2022/04/04 13:09:34;;;;;;;;;;;;;;;4.38;70.16;99414.00;5036688;28;19936;-63
2022/04/04 13:12:29;;;;;;;;;;;;;;;4.40;70.09;99408.94;5036630;28;19927;-63
2022/04/04 13:15:13;;;;;;;;;;;;;;;4.39;70.22;99417.47;5035059;28;19928;-64
2022/04/04 13:17:57;;;;;;;;;;;;;;;4.40;70.04;99422.63;5035909;28;20268;-62
2022/04/04 13:20:41;;;;;;;;;;;;;;;4.42;69.95;99420.13;5035743;28;19927;-63
2022/04/04 13:23:25;;;;;;;;;;;;;;;4.41;70.55;99411.53;5035896;28;19928;-63
2022/04/04 13:26:09;;;;;;;;;;;;;;;4.42;70.02;99407.28;5035539;28;20019;-63
2022/04/04 13:28:53;;;;;;;;;;;;;;;4.43;70.53;99411.59;5049343;28;19944;-62
2022/04/04 13:31:38;;;;;;;;;;;;;;;4.43;70.05;99409.03;5036303;28;20012;-63
2022/04/04 13:34:22;;;;;;;;;;;;;;;4.42;70.63;99413.28;5035711;28;19943;-62
2022/04/04 13:37:05;;;;;;;;;;;;;;;4.42;70.08;99394.47;5034935;28;20026;-63
2022/04/04 13:39:49;;;;;;;;;;;;;;;4.42;70.22;99390.19;5049225;28;20394;-63
2022/04/04 13:42:33;;;;;;;;;;;;;;;4.41;71.25;99402.97;5048947;28;19968;-63
2022/04/04 13:45:17;;;;;;;;;;;;;;;4.41;70.54;99397.84;5034742;28;19932;-63
2022/04/04 13:48:01;;;;;;;;;;;;;;;4.42;70.53;99390.19;5048352;28;19940;-63
2022/04/04 13:50:46;;;;;;;;;;;;;;;4.40;71.26;99388.41;5035129;28;19971;-63
2022/04/04 13:53:29;;;;;;;;;;;;;;;4.42;70.38;99387.63;5034443;28;20041;-63
2022/04/04 13:56:18;;;;;;;;;;;;;;;4.43;70.96;99380.81;5035764;28;19928;-62
2022/04/04 13:59:03;;;;;;;;;;;;;;;4.45;70.51;99383.41;5034380;28;19990;-62
2022/04/04 14:01:47;;;;;;;;;;;;;;;4.44;70.83;99379.09;5034382;28;19963;-62
2022/04/04 14:04:35;;;;;;;;;;;;;;;4.45;70.70;99380.84;5035563;28;19967;-63
2022/04/04 14:07:19;;;;;;;;;;;;;;;4.45;70.81;99380.84;5047996;28;19956;-62
2022/04/04 14:10:06;;;;;;;;;;;;;;;4.44;71.21;99356.00;5034649;28;19928;-62
2022/04/04 14:12:50;;;;;;;;;;;;;;;4.46;71.19;99360.34;5034081;28;19928;-64
2022/04/04 14:15:34;;;;;;;;;;;;;;;4.45;71.16;99361.19;5035346;28;19928;-63
2022/04/04 14:18:18;;;;;;;;;;;;;;;4.46;71.20;99372.31;5034487;28;20412;-62
2022/04/04 14:21:04;;;;;;;;;;;;;;;4.45;70.88;99338.09;5034088;28;19964;-62
2022/04/04 14:23:48;;;;;;;;;;;;;;;4.45;71.59;99352.63;5033815;28;20006;-62
2022/04/04 14:26:32;;;;;;;;;;;;;;;4.44;70.95;99359.44;5034844;28;19932;-62
2022/04/04 14:29:15;;;;;;;;;;;;;;;4.45;71.59;99350.06;5034600;28;19975;-63
2022/04/04 14:31:59;;;;;;;;;;;;;;;4.46;71.36;99355.22;5034126;28;19928;-63
2022/04/04 14:34:44;;;;;;;;;;;;;;;4.46;71.33;99352.66;5034993;28;19944;-63
2022/04/04 14:37:27;;;;;;;;;;;;;;;4.46;71.61;99354.38;5034628;28;19971;-62